sensor_id;sensor_type;location;lat;lon;timestamp;P1;durP1;ratioP1;P2;durP2;ratioP2
51907;SDS011;39320;53.214;6.556;2023-03-21T00:00:43;20.48;;;14.40;;
51907;SDS011;39320;53.214;6.556;2023-03-21T00:03:10;18.48;;;13.98;;
51907;SDS011;39320;53.214;6.556;2023-03-21T00:05:39;16.73;;;12.93;;
51907;SDS011;39320;53.214;6.556;2023-03-21T00:08:05;17.30;;;13.15;;
51907;SDS011;39320;53.214;6.556;2023-03-21T00:10:32;18.88;;;13.10;;
51907;SDS011;39320;53.214;6.556;2023-03-21T00:12:57;16.27;;;12.85;;
51907;SDS011;39320;53.214;6.556;2023-03-21T00:15:24;14.57;;;12.82;;
51907;SDS011;39320;53.214;6.556;2023-03-21T00:17:53;18.85;;;13.38;;
51907;SDS011;39320;53.214;6.556;2023-03-21T00:20:22;16.50;;;12.50;;
51907;SDS011;39320;53.214;6.556;2023-03-21T00:22:48;16.48;;;12.35;;
51907;SDS011;39320;53.214;6.556;2023-03-21T00:25:14;16.70;;;12.05;;
51907;SDS011;39320;53.214;6.556;2023-03-21T00:27:40;15.70;;;11.45;;
51907;SDS011;39320;53.214;6.556;2023-03-21T00:30:06;15.60;;;12.15;;
51907;SDS011;39320;53.214;6.556;2023-03-21T00:32:32;15.75;;;11.95;;
51907;SDS011;39320;53.214;6.556;2023-03-21T00:34:58;14.25;;;11.20;;
51907;SDS011;39320;53.214;6.556;2023-03-21T00:37:24;15.77;;;12.07;;
51907;SDS011;39320;53.214;6.556;2023-03-21T00:39:52;16.45;;;12.32;;
51907;SDS011;39320;53.214;6.556;2023-03-21T00:42:18;17.77;;;11.95;;
51907;SDS011;39320;53.214;6.556;2023-03-21T00:44:43;17.75;;;12.27;;
51907;SDS011;39320;53.214;6.556;2023-03-21T00:47:10;21.48;;;13.27;;
51907;SDS011;39320;53.214;6.556;2023-03-21T00:49:36;22.10;;;13.88;;
51907;SDS011;39320;53.214;6.556;2023-03-21T00:52:04;22.55;;;12.52;;
51907;SDS011;39320;53.214;6.556;2023-03-21T00:54:34;23.85;;;16.00;;
51907;SDS011;39320;53.214;6.556;2023-03-21T00:57:02;25.25;;;16.05;;
51907;SDS011;39320;53.214;6.556;2023-03-21T00:59:28;29.83;;;16.58;;
51907;SDS011;39320;53.214;6.556;2023-03-21T01:01:54;36.85;;;19.40;;
51907;SDS011;39320;53.214;6.556;2023-03-21T01:04:21;33.15;;;19.95;;
51907;SDS011;39320;53.214;6.556;2023-03-21T01:06:50;34.17;;;19.55;;
51907;SDS011;39320;53.214;6.556;2023-03-21T01:09:18;38.47;;;20.27;;
51907;SDS011;39320;53.214;6.556;2023-03-21T01:11:46;48.60;;;21.65;;
51907;SDS011;39320;53.214;6.556;2023-03-21T01:14:14;38.60;;;21.00;;
51907;SDS011;39320;53.214;6.556;2023-03-21T01:16:41;51.78;;;23.13;;
51907;SDS011;39320;53.214;6.556;2023-03-21T01:19:09;39.33;;;21.55;;
51907;SDS011;39320;53.214;6.556;2023-03-21T01:21:38;44.90;;;22.10;;
51907;SDS011;39320;53.214;6.556;2023-03-21T01:24:04;57.03;;;24.52;;
51907;SDS011;39320;53.214;6.556;2023-03-21T01:26:30;44.95;;;23.27;;
51907;SDS011;39320;53.214;6.556;2023-03-21T01:28:56;38.53;;;21.73;;
51907;SDS011;39320;53.214;6.556;2023-03-21T01:31:23;48.47;;;24.67;;
51907;SDS011;39320;53.214;6.556;2023-03-21T01:33:49;40.15;;;22.40;;
51907;SDS011;39320;53.214;6.556;2023-03-21T01:36:16;50.30;;;23.35;;
51907;SDS011;39320;53.214;6.556;2023-03-21T01:38:46;42.63;;;24.33;;
51907;SDS011;39320;53.214;6.556;2023-03-21T01:41:17;39.95;;;21.02;;
51907;SDS011;39320;53.214;6.556;2023-03-21T01:43:43;40.00;;;23.20;;
51907;SDS011;39320;53.214;6.556;2023-03-21T01:48:38;29.92;;;18.40;;
51907;SDS011;39320;53.214;6.556;2023-03-21T01:51:06;32.88;;;19.13;;
51907;SDS011;39320;53.214;6.556;2023-03-21T01:53:36;28.65;;;16.67;;
51907;SDS011;39320;53.214;6.556;2023-03-21T01:56:15;29.30;;;17.02;;
51907;SDS011;39320;53.214;6.556;2023-03-21T01:58:50;28.65;;;17.65;;
51907;SDS011;39320;53.214;6.556;2023-03-21T02:01:19;31.88;;;17.02;;
51907;SDS011;39320;53.214;6.556;2023-03-21T02:03:47;32.05;;;19.80;;
51907;SDS011;39320;53.214;6.556;2023-03-21T02:06:19;35.50;;;20.13;;
51907;SDS011;39320;53.214;6.556;2023-03-21T02:09:06;31.85;;;19.20;;
51907;SDS011;39320;53.214;6.556;2023-03-21T02:11:34;35.33;;;20.38;;
51907;SDS011;39320;53.214;6.556;2023-03-21T02:14:01;31.60;;;19.23;;
51907;SDS011;39320;53.214;6.556;2023-03-21T02:19:18;32.38;;;19.45;;
51907;SDS011;39320;53.214;6.556;2023-03-21T02:22:15;28.98;;;18.23;;
51907;SDS011;39320;53.214;6.556;2023-03-21T02:25:00;29.17;;;17.48;;
51907;SDS011;39320;53.214;6.556;2023-03-21T02:28:05;29.70;;;18.40;;
51907;SDS011;39320;53.214;6.556;2023-03-21T02:36:17;31.42;;;18.98;;
51907;SDS011;39320;53.214;6.556;2023-03-21T02:38:59;26.33;;;17.55;;
51907;SDS011;39320;53.214;6.556;2023-03-21T02:44:40;27.00;;;17.95;;
51907;SDS011;39320;53.214;6.556;2023-03-21T02:52:51;24.27;;;18.08;;
51907;SDS011;39320;53.214;6.556;2023-03-21T02:55:21;25.38;;;17.77;;
51907;SDS011;39320;53.214;6.556;2023-03-21T02:57:50;23.48;;;16.80;;
51907;SDS011;39320;53.214;6.556;2023-03-21T03:00:19;23.33;;;17.20;;
51907;SDS011;39320;53.214;6.556;2023-03-21T03:02:47;25.83;;;16.73;;
51907;SDS011;39320;53.214;6.556;2023-03-21T03:05:22;23.17;;;16.67;;
51907;SDS011;39320;53.214;6.556;2023-03-21T03:07:55;23.00;;;16.95;;
51907;SDS011;39320;53.214;6.556;2023-03-21T03:13:44;23.80;;;16.13;;
51907;SDS011;39320;53.214;6.556;2023-03-21T03:19:00;21.58;;;16.73;;
51907;SDS011;39320;53.214;6.556;2023-03-21T03:26:40;25.17;;;16.85;;
51907;SDS011;39320;53.214;6.556;2023-03-21T03:29:15;21.33;;;15.95;;
51907;SDS011;39320;53.214;6.556;2023-03-21T03:31:44;20.83;;;15.40;;
51907;SDS011;39320;53.214;6.556;2023-03-21T03:34:15;21.42;;;16.05;;
51907;SDS011;39320;53.214;6.556;2023-03-21T03:36:46;21.00;;;15.68;;
51907;SDS011;39320;53.214;6.556;2023-03-21T03:39:20;20.83;;;15.82;;
51907;SDS011;39320;53.214;6.556;2023-03-21T03:41:56;19.15;;;15.25;;
51907;SDS011;39320;53.214;6.556;2023-03-21T03:44:26;21.50;;;16.45;;
51907;SDS011;39320;53.214;6.556;2023-03-21T03:46:57;18.95;;;14.88;;
51907;SDS011;39320;53.214;6.556;2023-03-21T03:49:39;23.58;;;16.65;;
51907;SDS011;39320;53.214;6.556;2023-03-21T03:52:17;19.92;;;14.77;;
51907;SDS011;39320;53.214;6.556;2023-03-21T03:54:48;21.65;;;15.73;;
51907;SDS011;39320;53.214;6.556;2023-03-21T03:57:16;20.15;;;15.15;;
51907;SDS011;39320;53.214;6.556;2023-03-21T03:59:43;21.85;;;15.48;;
51907;SDS011;39320;53.214;6.556;2023-03-21T04:02:10;18.50;;;14.15;;
51907;SDS011;39320;53.214;6.556;2023-03-21T04:04:37;19.88;;;14.02;;
51907;SDS011;39320;53.214;6.556;2023-03-21T04:07:03;20.10;;;14.30;;
51907;SDS011;39320;53.214;6.556;2023-03-21T04:09:30;18.70;;;13.70;;
51907;SDS011;39320;53.214;6.556;2023-03-21T04:11:56;16.95;;;13.85;;
51907;SDS011;39320;53.214;6.556;2023-03-21T04:14:23;19.95;;;14.07;;
51907;SDS011;39320;53.214;6.556;2023-03-21T04:16:49;22.30;;;15.80;;
51907;SDS011;39320;53.214;6.556;2023-03-21T04:19:16;20.17;;;15.13;;
51907;SDS011;39320;53.214;6.556;2023-03-21T04:21:42;21.35;;;15.30;;
51907;SDS011;39320;53.214;6.556;2023-03-21T04:24:08;22.75;;;14.85;;
51907;SDS011;39320;53.214;6.556;2023-03-21T04:26:36;22.02;;;14.90;;
51907;SDS011;39320;53.214;6.556;2023-03-21T04:29:02;19.83;;;14.13;;
51907;SDS011;39320;53.214;6.556;2023-03-21T04:31:29;21.10;;;14.65;;
51907;SDS011;39320;53.214;6.556;2023-03-21T04:33:58;22.80;;;14.93;;
51907;SDS011;39320;53.214;6.556;2023-03-21T04:36:25;20.23;;;14.23;;
51907;SDS011;39320;53.214;6.556;2023-03-21T04:38:55;20.10;;;13.45;;
51907;SDS011;39320;53.214;6.556;2023-03-21T04:41:36;18.58;;;13.70;;
51907;SDS011;39320;53.214;6.556;2023-03-21T04:44:05;17.55;;;12.48;;
51907;SDS011;39320;53.214;6.556;2023-03-21T04:46:32;16.73;;;11.25;;
51907;SDS011;39320;53.214;6.556;2023-03-21T04:48:59;17.98;;;13.13;;
51907;SDS011;39320;53.214;6.556;2023-03-21T04:51:25;17.75;;;12.20;;
51907;SDS011;39320;53.214;6.556;2023-03-21T04:53:50;19.02;;;12.80;;
51907;SDS011;39320;53.214;6.556;2023-03-21T04:56:21;19.65;;;13.13;;
51907;SDS011;39320;53.214;6.556;2023-03-21T04:58:55;17.45;;;11.73;;
51907;SDS011;39320;53.214;6.556;2023-03-21T05:01:21;16.08;;;10.88;;
51907;SDS011;39320;53.214;6.556;2023-03-21T05:03:49;19.13;;;11.65;;
51907;SDS011;39320;53.214;6.556;2023-03-21T05:06:15;19.25;;;11.98;;
51907;SDS011;39320;53.214;6.556;2023-03-21T05:08:42;18.38;;;11.75;;
51907;SDS011;39320;53.214;6.556;2023-03-21T05:11:08;18.88;;;12.60;;
51907;SDS011;39320;53.214;6.556;2023-03-21T05:13:33;17.58;;;12.20;;
51907;SDS011;39320;53.214;6.556;2023-03-21T05:15:59;19.08;;;12.40;;
51907;SDS011;39320;53.214;6.556;2023-03-21T05:18:25;18.92;;;13.30;;
51907;SDS011;39320;53.214;6.556;2023-03-21T05:20:51;16.17;;;12.60;;
51907;SDS011;39320;53.214;6.556;2023-03-21T05:23:21;15.90;;;12.25;;
51907;SDS011;39320;53.214;6.556;2023-03-21T05:25:48;18.83;;;13.23;;
51907;SDS011;39320;53.214;6.556;2023-03-21T05:28:14;18.27;;;12.32;;
51907;SDS011;39320;53.214;6.556;2023-03-21T05:30:43;16.88;;;11.40;;
51907;SDS011;39320;53.214;6.556;2023-03-21T05:33:10;21.45;;;13.77;;
51907;SDS011;39320;53.214;6.556;2023-03-21T05:35:36;17.85;;;12.07;;
51907;SDS011;39320;53.214;6.556;2023-03-21T05:38:01;18.50;;;12.82;;
51907;SDS011;39320;53.214;6.556;2023-03-21T05:40:27;19.65;;;13.85;;
51907;SDS011;39320;53.214;6.556;2023-03-21T05:42:53;19.88;;;13.77;;
51907;SDS011;39320;53.214;6.556;2023-03-21T05:45:19;21.85;;;13.82;;
51907;SDS011;39320;53.214;6.556;2023-03-21T05:47:48;20.92;;;14.40;;
51907;SDS011;39320;53.214;6.556;2023-03-21T05:50:13;18.52;;;13.10;;
51907;SDS011;39320;53.214;6.556;2023-03-21T05:52:40;19.83;;;13.38;;
51907;SDS011;39320;53.214;6.556;2023-03-21T05:55:05;18.25;;;12.35;;
51907;SDS011;39320;53.214;6.556;2023-03-21T05:57:31;18.88;;;12.55;;
51907;SDS011;39320;53.214;6.556;2023-03-21T06:00:03;18.75;;;12.63;;
51907;SDS011;39320;53.214;6.556;2023-03-21T06:02:30;19.92;;;13.25;;
51907;SDS011;39320;53.214;6.556;2023-03-21T06:04:56;17.25;;;12.23;;
51907;SDS011;39320;53.214;6.556;2023-03-21T06:07:21;15.38;;;11.75;;
51907;SDS011;39320;53.214;6.556;2023-03-21T06:09:47;15.90;;;11.75;;
51907;SDS011;39320;53.214;6.556;2023-03-21T06:12:13;16.92;;;11.70;;
51907;SDS011;39320;53.214;6.556;2023-03-21T06:14:39;16.88;;;12.10;;
51907;SDS011;39320;53.214;6.556;2023-03-21T06:17:04;17.60;;;12.35;;
51907;SDS011;39320;53.214;6.556;2023-03-21T06:19:30;16.05;;;10.20;;
51907;SDS011;39320;53.214;6.556;2023-03-21T06:21:56;15.48;;;10.63;;
51907;SDS011;39320;53.214;6.556;2023-03-21T06:24:22;16.60;;;10.48;;
51907;SDS011;39320;53.214;6.556;2023-03-21T06:26:47;15.15;;;10.43;;
51907;SDS011;39320;53.214;6.556;2023-03-21T06:29:13;14.82;;;10.70;;
51907;SDS011;39320;53.214;6.556;2023-03-21T06:31:39;13.38;;;11.30;;
51907;SDS011;39320;53.214;6.556;2023-03-21T06:34:05;15.30;;;10.98;;
51907;SDS011;39320;53.214;6.556;2023-03-21T06:36:31;13.48;;;9.43;;
51907;SDS011;39320;53.214;6.556;2023-03-21T06:38:57;13.80;;;10.05;;
51907;SDS011;39320;53.214;6.556;2023-03-21T06:41:22;14.60;;;10.73;;
51907;SDS011;39320;53.214;6.556;2023-03-21T06:43:48;13.43;;;9.65;;
51907;SDS011;39320;53.214;6.556;2023-03-21T06:46:14;13.68;;;9.90;;
51907;SDS011;39320;53.214;6.556;2023-03-21T06:48:40;12.85;;;10.55;;
51907;SDS011;39320;53.214;6.556;2023-03-21T06:51:09;13.27;;;10.95;;
51907;SDS011;39320;53.214;6.556;2023-03-21T06:53:38;15.27;;;11.70;;
51907;SDS011;39320;53.214;6.556;2023-03-21T06:56:06;15.15;;;10.70;;
51907;SDS011;39320;53.214;6.556;2023-03-21T06:58:36;15.40;;;11.45;;
51907;SDS011;39320;53.214;6.556;2023-03-21T07:01:02;14.90;;;11.15;;
51907;SDS011;39320;53.214;6.556;2023-03-21T07:03:29;14.70;;;11.02;;
51907;SDS011;39320;53.214;6.556;2023-03-21T07:05:55;14.18;;;10.95;;
51907;SDS011;39320;53.214;6.556;2023-03-21T07:08:22;19.17;;;12.30;;
51907;SDS011;39320;53.214;6.556;2023-03-21T07:10:47;15.00;;;11.57;;
51907;SDS011;39320;53.214;6.556;2023-03-21T07:13:14;17.00;;;12.25;;
51907;SDS011;39320;53.214;6.556;2023-03-21T07:15:40;15.95;;;11.70;;
51907;SDS011;39320;53.214;6.556;2023-03-21T07:18:07;14.90;;;11.23;;
51907;SDS011;39320;53.214;6.556;2023-03-21T07:20:34;13.20;;;10.77;;
51907;SDS011;39320;53.214;6.556;2023-03-21T07:23:05;12.68;;;10.88;;
51907;SDS011;39320;53.214;6.556;2023-03-21T07:25:31;13.60;;;10.90;;
51907;SDS011;39320;53.214;6.556;2023-03-21T07:27:57;13.82;;;11.50;;
51907;SDS011;39320;53.214;6.556;2023-03-21T07:30:23;13.10;;;10.95;;
51907;SDS011;39320;53.214;6.556;2023-03-21T07:32:49;15.82;;;10.77;;
51907;SDS011;39320;53.214;6.556;2023-03-21T07:35:15;13.80;;;11.60;;
51907;SDS011;39320;53.214;6.556;2023-03-21T07:37:42;13.90;;;10.70;;
51907;SDS011;39320;53.214;6.556;2023-03-21T07:40:08;12.88;;;10.00;;
51907;SDS011;39320;53.214;6.556;2023-03-21T07:42:38;13.10;;;9.68;;
51907;SDS011;39320;53.214;6.556;2023-03-21T07:45:08;14.18;;;10.43;;
51907;SDS011;39320;53.214;6.556;2023-03-21T07:47:35;12.02;;;9.23;;
51907;SDS011;39320;53.214;6.556;2023-03-21T07:50:01;12.52;;;10.52;;
51907;SDS011;39320;53.214;6.556;2023-03-21T07:52:28;11.10;;;8.18;;
51907;SDS011;39320;53.214;6.556;2023-03-21T07:54:58;10.68;;;8.68;;
51907;SDS011;39320;53.214;6.556;2023-03-21T07:57:23;10.63;;;8.52;;
51907;SDS011;39320;53.214;6.556;2023-03-21T07:59:50;11.45;;;8.30;;
51907;SDS011;39320;53.214;6.556;2023-03-21T08:02:16;11.63;;;9.25;;
51907;SDS011;39320;53.214;6.556;2023-03-21T08:04:42;9.65;;;7.85;;
51907;SDS011;39320;53.214;6.556;2023-03-21T08:07:09;11.27;;;8.23;;
51907;SDS011;39320;53.214;6.556;2023-03-21T08:09:35;10.43;;;8.32;;
51907;SDS011;39320;53.214;6.556;2023-03-21T08:12:02;9.15;;;8.13;;
51907;SDS011;39320;53.214;6.556;2023-03-21T08:14:29;8.98;;;7.45;;
51907;SDS011;39320;53.214;6.556;2023-03-21T08:16:57;9.10;;;7.15;;
51907;SDS011;39320;53.214;6.556;2023-03-21T08:19:25;8.20;;;6.90;;
51907;SDS011;39320;53.214;6.556;2023-03-21T08:21:51;8.68;;;7.15;;
51907;SDS011;39320;53.214;6.556;2023-03-21T08:24:17;8.90;;;6.90;;
51907;SDS011;39320;53.214;6.556;2023-03-21T08:26:44;9.38;;;7.40;;
51907;SDS011;39320;53.214;6.556;2023-03-21T08:29:11;7.63;;;6.45;;
51907;SDS011;39320;53.214;6.556;2023-03-21T08:31:38;8.77;;;6.85;;
51907;SDS011;39320;53.214;6.556;2023-03-21T08:34:05;9.13;;;6.93;;
51907;SDS011;39320;53.214;6.556;2023-03-21T08:36:32;9.20;;;6.57;;
51907;SDS011;39320;53.214;6.556;2023-03-21T08:39:01;7.30;;;6.53;;
51907;SDS011;39320;53.214;6.556;2023-03-21T08:41:37;7.63;;;6.63;;
51907;SDS011;39320;53.214;6.556;2023-03-21T08:44:05;6.43;;;5.55;;
51907;SDS011;39320;53.214;6.556;2023-03-21T08:46:31;7.45;;;6.07;;
51907;SDS011;39320;53.214;6.556;2023-03-21T08:48:57;6.63;;;6.03;;
51907;SDS011;39320;53.214;6.556;2023-03-21T08:51:23;6.88;;;6.03;;
51907;SDS011;39320;53.214;6.556;2023-03-21T08:53:49;6.55;;;5.55;;
51907;SDS011;39320;53.214;6.556;2023-03-21T08:56:17;6.57;;;5.88;;
51907;SDS011;39320;53.214;6.556;2023-03-21T08:58:42;7.00;;;5.95;;
51907;SDS011;39320;53.214;6.556;2023-03-21T09:01:09;6.75;;;5.60;;
51907;SDS011;39320;53.214;6.556;2023-03-21T09:03:39;7.32;;;5.70;;
51907;SDS011;39320;53.214;6.556;2023-03-21T09:06:07;5.78;;;4.97;;
51907;SDS011;39320;53.214;6.556;2023-03-21T09:08:36;6.18;;;5.40;;
51907;SDS011;39320;53.214;6.556;2023-03-21T09:11:02;6.68;;;5.88;;
51907;SDS011;39320;53.214;6.556;2023-03-21T09:13:28;7.43;;;5.38;;
51907;SDS011;39320;53.214;6.556;2023-03-21T09:15:54;7.82;;;5.45;;
51907;SDS011;39320;53.214;6.556;2023-03-21T09:18:22;5.90;;;5.25;;
51907;SDS011;39320;53.214;6.556;2023-03-21T09:23:37;8.77;;;6.63;;
51907;SDS011;39320;53.214;6.556;2023-03-21T09:26:05;8.93;;;6.57;;
51907;SDS011;39320;53.214;6.556;2023-03-21T09:28:34;11.82;;;8.32;;
51907;SDS011;39320;53.214;6.556;2023-03-21T09:31:04;8.25;;;7.45;;
51907;SDS011;39320;53.214;6.556;2023-03-21T09:33:36;13.23;;;9.82;;
51907;SDS011;39320;53.214;6.556;2023-03-21T09:36:04;13.90;;;9.15;;
51907;SDS011;39320;53.214;6.556;2023-03-21T09:38:35;13.27;;;10.40;;
51907;SDS011;39320;53.214;6.556;2023-03-21T09:49:23;15.55;;;10.90;;
51907;SDS011;39320;53.214;6.556;2023-03-21T09:51:55;12.13;;;10.73;;
51907;SDS011;39320;53.214;6.556;2023-03-21T09:54:25;13.40;;;11.48;;
51907;SDS011;39320;53.214;6.556;2023-03-21T09:57:15;14.15;;;11.23;;
51907;SDS011;39320;53.214;6.556;2023-03-21T09:59:51;13.82;;;11.68;;
51907;SDS011;39320;53.214;6.556;2023-03-21T10:02:33;15.70;;;12.00;;
51907;SDS011;39320;53.214;6.556;2023-03-21T10:05:26;17.95;;;12.77;;
51907;SDS011;39320;53.214;6.556;2023-03-21T10:08:03;19.33;;;12.52;;
51907;SDS011;39320;53.214;6.556;2023-03-21T10:10:52;15.50;;;13.10;;
51907;SDS011;39320;53.214;6.556;2023-03-21T10:13:24;15.98;;;12.80;;
51907;SDS011;39320;53.214;6.556;2023-03-21T10:15:57;16.45;;;13.75;;
51907;SDS011;39320;53.214;6.556;2023-03-21T10:18:25;16.00;;;13.13;;
51907;SDS011;39320;53.214;6.556;2023-03-21T10:20:54;17.30;;;13.20;;
51907;SDS011;39320;53.214;6.556;2023-03-21T10:23:23;18.60;;;14.43;;
51907;SDS011;39320;53.214;6.556;2023-03-21T10:25:53;17.38;;;14.98;;
51907;SDS011;39320;53.214;6.556;2023-03-21T10:28:26;17.70;;;14.30;;
51907;SDS011;39320;53.214;6.556;2023-03-21T10:31:01;20.70;;;15.82;;
51907;SDS011;39320;53.214;6.556;2023-03-21T10:33:36;18.38;;;15.40;;
51907;SDS011;39320;53.214;6.556;2023-03-21T10:36:09;18.80;;;14.63;;
51907;SDS011;39320;53.214;6.556;2023-03-21T10:38:46;18.52;;;16.08;;
51907;SDS011;39320;53.214;6.556;2023-03-21T10:41:15;16.75;;;14.63;;
51907;SDS011;39320;53.214;6.556;2023-03-21T10:43:41;19.48;;;15.43;;
51907;SDS011;39320;53.214;6.556;2023-03-21T10:46:12;14.32;;;12.75;;
51907;SDS011;39320;53.214;6.556;2023-03-21T10:48:42;17.38;;;13.75;;
51907;SDS011;39320;53.214;6.556;2023-03-21T10:51:11;16.40;;;13.93;;
51907;SDS011;39320;53.214;6.556;2023-03-21T10:53:44;18.23;;;15.27;;
51907;SDS011;39320;53.214;6.556;2023-03-21T10:56:15;17.05;;;14.52;;
51907;SDS011;39320;53.214;6.556;2023-03-21T10:58:43;19.83;;;15.90;;
51907;SDS011;39320;53.214;6.556;2023-03-21T11:01:15;20.38;;;16.30;;
51907;SDS011;39320;53.214;6.556;2023-03-21T11:04:00;18.27;;;14.82;;
51907;SDS011;39320;53.214;6.556;2023-03-21T11:06:35;17.90;;;15.27;;
51907;SDS011;39320;53.214;6.556;2023-03-21T11:09:05;18.02;;;13.80;;
51907;SDS011;39320;53.214;6.556;2023-03-21T11:14:03;18.67;;;14.13;;
51907;SDS011;39320;53.214;6.556;2023-03-21T11:16:35;17.75;;;14.43;;
51907;SDS011;39320;53.214;6.556;2023-03-21T11:19:13;16.10;;;11.68;;
51907;SDS011;39320;53.214;6.556;2023-03-21T11:21:44;14.50;;;12.32;;
51907;SDS011;39320;53.214;6.556;2023-03-21T11:24:15;14.55;;;12.02;;
51907;SDS011;39320;53.214;6.556;2023-03-21T11:26:43;19.42;;;12.90;;
51907;SDS011;39320;53.214;6.556;2023-03-21T11:29:19;16.52;;;12.13;;
51907;SDS011;39320;53.214;6.556;2023-03-21T11:31:51;18.55;;;13.15;;
51907;SDS011;39320;53.214;6.556;2023-03-21T11:34:23;17.15;;;13.18;;
51907;SDS011;39320;53.214;6.556;2023-03-21T11:36:52;17.35;;;11.43;;
51907;SDS011;39320;53.214;6.556;2023-03-21T11:39:27;14.20;;;11.73;;
51907;SDS011;39320;53.214;6.556;2023-03-21T11:42:03;16.52;;;11.73;;
51907;SDS011;39320;53.214;6.556;2023-03-21T11:44:40;14.77;;;12.05;;
51907;SDS011;39320;53.214;6.556;2023-03-21T11:47:09;14.98;;;10.98;;
51907;SDS011;39320;53.214;6.556;2023-03-21T11:49:35;15.02;;;11.38;;
51907;SDS011;39320;53.214;6.556;2023-03-21T11:52:04;13.35;;;11.02;;
51907;SDS011;39320;53.214;6.556;2023-03-21T11:55:57;15.88;;;11.38;;
51907;SDS011;39320;53.214;6.556;2023-03-21T11:58:02;11.45;;;10.13;;
51907;SDS011;39320;53.214;6.556;2023-03-21T12:00:41;14.60;;;10.65;;
51907;SDS011;39320;53.214;6.556;2023-03-21T12:09:28;13.55;;;10.70;;
51907;SDS011;39320;53.214;6.556;2023-03-21T12:17:27;11.05;;;9.75;;
51907;SDS011;39320;53.214;6.556;2023-03-21T12:25:55;13.07;;;9.73;;
51907;SDS011;39320;53.214;6.556;2023-03-21T12:28:45;11.55;;;9.55;;
51907;SDS011;39320;53.214;6.556;2023-03-21T12:31:27;16.17;;;9.23;;
51907;SDS011;39320;53.214;6.556;2023-03-21T12:39:27;12.93;;;9.45;;
51907;SDS011;39320;53.214;6.556;2023-03-21T12:44:25;14.25;;;9.68;;
51907;SDS011;39320;53.214;6.556;2023-03-21T12:47:00;15.55;;;10.52;;
51907;SDS011;39320;53.214;6.556;2023-03-21T12:49:47;14.43;;;10.50;;
51907;SDS011;39320;53.214;6.556;2023-03-21T12:52:22;11.55;;;9.07;;
51907;SDS011;39320;53.214;6.556;2023-03-21T12:54:54;10.50;;;8.38;;
51907;SDS011;39320;53.214;6.556;2023-03-21T13:00:05;13.45;;;9.80;;
51907;SDS011;39320;53.214;6.556;2023-03-21T13:03:02;13.38;;;10.05;;
51907;SDS011;39320;53.214;6.556;2023-03-21T13:05:55;11.27;;;9.02;;
51907;SDS011;39320;53.214;6.556;2023-03-21T13:11:29;10.10;;;9.07;;
51907;SDS011;39320;53.214;6.556;2023-03-21T13:14:07;14.35;;;9.88;;
51907;SDS011;39320;53.214;6.556;2023-03-21T13:16:51;11.43;;;9.27;;
51907;SDS011;39320;53.214;6.556;2023-03-21T13:25:30;11.23;;;8.15;;
51907;SDS011;39320;53.214;6.556;2023-03-21T13:28:01;12.05;;;10.75;;
51907;SDS011;39320;53.214;6.556;2023-03-21T13:30:31;15.25;;;10.02;;
51907;SDS011;39320;53.214;6.556;2023-03-21T13:33:04;13.57;;;9.52;;
51907;SDS011;39320;53.214;6.556;2023-03-21T13:35:37;12.60;;;9.25;;
51907;SDS011;39320;53.214;6.556;2023-03-21T13:40:49;12.82;;;9.32;;
51907;SDS011;39320;53.214;6.556;2023-03-21T13:49:34;13.85;;;9.38;;
51907;SDS011;39320;53.214;6.556;2023-03-21T13:51:51;12.48;;;9.20;;
51907;SDS011;39320;53.214;6.556;2023-03-21T13:57:06;13.50;;;9.32;;
51907;SDS011;39320;53.214;6.556;2023-03-21T13:59:46;12.68;;;10.07;;
51907;SDS011;39320;53.214;6.556;2023-03-21T14:02:26;14.70;;;9.95;;
51907;SDS011;39320;53.214;6.556;2023-03-21T14:04:58;11.43;;;8.63;;
51907;SDS011;39320;53.214;6.556;2023-03-21T14:07:28;11.75;;;9.75;;
51907;SDS011;39320;53.214;6.556;2023-03-21T14:09:58;14.43;;;9.98;;
51907;SDS011;39320;53.214;6.556;2023-03-21T14:12:32;13.63;;;9.32;;
51907;SDS011;39320;53.214;6.556;2023-03-21T14:15:36;12.15;;;9.63;;
51907;SDS011;39320;53.214;6.556;2023-03-21T14:17:58;14.67;;;10.10;;
51907;SDS011;39320;53.214;6.556;2023-03-21T14:20:31;11.30;;;10.05;;
51907;SDS011;39320;53.214;6.556;2023-03-21T14:23:02;12.63;;;9.05;;
51907;SDS011;39320;53.214;6.556;2023-03-21T14:25:35;11.57;;;9.52;;
51907;SDS011;39320;53.214;6.556;2023-03-21T14:28:03;13.20;;;10.40;;
51907;SDS011;39320;53.214;6.556;2023-03-21T14:30:35;13.30;;;10.20;;
51907;SDS011;39320;53.214;6.556;2023-03-21T14:35:39;15.07;;;11.55;;
51907;SDS011;39320;53.214;6.556;2023-03-21T14:38:07;16.20;;;9.65;;
51907;SDS011;39320;53.214;6.556;2023-03-21T14:40:46;12.35;;;10.50;;
51907;SDS011;39320;53.214;6.556;2023-03-21T14:43:16;12.35;;;9.93;;
51907;SDS011;39320;53.214;6.556;2023-03-21T14:45:45;12.60;;;9.98;;
51907;SDS011;39320;53.214;6.556;2023-03-21T14:48:13;12.57;;;10.43;;
51907;SDS011;39320;53.214;6.556;2023-03-21T14:53:26;13.25;;;9.68;;
51907;SDS011;39320;53.214;6.556;2023-03-21T14:58:39;13.85;;;9.80;;
51907;SDS011;39320;53.214;6.556;2023-03-21T15:01:06;12.45;;;9.68;;
51907;SDS011;39320;53.214;6.556;2023-03-21T15:06:12;10.82;;;9.35;;
51907;SDS011;39320;53.214;6.556;2023-03-21T15:08:38;11.93;;;10.07;;
51907;SDS011;39320;53.214;6.556;2023-03-21T15:11:06;12.52;;;9.85;;
51907;SDS011;39320;53.214;6.556;2023-03-21T15:13:39;17.17;;;11.05;;
51907;SDS011;39320;53.214;6.556;2023-03-21T15:16:14;12.23;;;10.23;;
51907;SDS011;39320;53.214;6.556;2023-03-21T15:18:45;13.73;;;10.00;;
51907;SDS011;39320;53.214;6.556;2023-03-21T15:23:44;13.90;;;10.52;;
51907;SDS011;39320;53.214;6.556;2023-03-21T15:26:15;12.32;;;9.80;;
51907;SDS011;39320;53.214;6.556;2023-03-21T15:28:46;13.57;;;10.60;;
51907;SDS011;39320;53.214;6.556;2023-03-21T15:31:20;14.57;;;10.68;;
51907;SDS011;39320;53.214;6.556;2023-03-21T15:33:48;17.75;;;10.57;;
51907;SDS011;39320;53.214;6.556;2023-03-21T15:36:21;13.52;;;10.13;;
51907;SDS011;39320;53.214;6.556;2023-03-21T15:38:51;12.68;;;10.20;;
51907;SDS011;39320;53.214;6.556;2023-03-21T15:43:53;13.13;;;10.75;;
51907;SDS011;39320;53.214;6.556;2023-03-21T15:46:38;13.23;;;10.10;;
51907;SDS011;39320;53.214;6.556;2023-03-21T15:51:39;12.30;;;10.23;;
51907;SDS011;39320;53.214;6.556;2023-03-21T15:54:14;15.63;;;11.13;;
51907;SDS011;39320;53.214;6.556;2023-03-21T15:56:44;14.30;;;10.90;;
51907;SDS011;39320;53.214;6.556;2023-03-21T15:59:14;12.57;;;10.90;;
51907;SDS011;39320;53.214;6.556;2023-03-21T16:01:47;11.52;;;10.38;;
51907;SDS011;39320;53.214;6.556;2023-03-21T16:04:14;14.20;;;11.57;;
51907;SDS011;39320;53.214;6.556;2023-03-21T16:07:02;15.25;;;10.65;;
51907;SDS011;39320;53.214;6.556;2023-03-21T16:09:44;12.48;;;11.15;;
51907;SDS011;39320;53.214;6.556;2023-03-21T16:12:15;12.45;;;10.60;;
51907;SDS011;39320;53.214;6.556;2023-03-21T16:14:42;11.82;;;10.63;;
51907;SDS011;39320;53.214;6.556;2023-03-21T16:17:12;17.13;;;10.73;;
51907;SDS011;39320;53.214;6.556;2023-03-21T16:22:50;12.95;;;11.07;;
51907;SDS011;39320;53.214;6.556;2023-03-21T16:25:16;12.35;;;11.15;;
51907;SDS011;39320;53.214;6.556;2023-03-21T16:27:42;14.40;;;11.35;;
51907;SDS011;39320;53.214;6.556;2023-03-21T16:30:13;15.52;;;11.85;;
51907;SDS011;39320;53.214;6.556;2023-03-21T16:32:40;14.60;;;10.90;;
51907;SDS011;39320;53.214;6.556;2023-03-21T16:35:07;11.60;;;10.40;;
51907;SDS011;39320;53.214;6.556;2023-03-21T16:37:36;13.75;;;11.63;;